createdAt,value
2024-05-09T00:00:22.040Z,12.64
2024-05-09T00:02:53.015Z,11.66
2024-05-09T00:05:19.803Z,13.45
2024-05-09T00:07:46.535Z,12.40
2024-05-09T00:10:22.280Z,12.59
2024-05-09T00:12:55.594Z,13.07
2024-05-09T00:15:22.146Z,13.50
2024-05-09T00:17:48.774Z,14.43
2024-05-09T00:20:20.513Z,12.50
2024-05-09T00:22:51.273Z,11.88
2024-05-09T00:25:17.963Z,11.83
2024-05-09T00:27:44.559Z,11.65
2024-05-09T00:30:17.466Z,11.46
2024-05-09T00:32:48.451Z,11.85
2024-05-09T00:35:15.146Z,12.02
2024-05-09T00:37:41.745Z,11.38
2024-05-09T00:40:15.098Z,11.31
2024-05-09T00:42:48.947Z,11.86
2024-05-09T00:45:15.639Z,12.15
2024-05-09T00:47:45.771Z,10.87
2024-05-09T00:50:19.216Z,10.59
2024-05-09T00:52:49.944Z,10.63
2024-05-09T00:55:17.631Z,11.48
2024-05-09T00:57:44.999Z,12.05
2024-05-09T01:00:22.447Z,11.35
2024-05-09T01:02:57.225Z,11.75
2024-05-09T01:05:23.908Z,11.15
2024-05-09T01:07:50.597Z,11.39
2024-05-09T01:10:21.331Z,12.13
2024-05-09T01:12:54.442Z,11.21
2024-05-09T01:15:20.972Z,10.91
2024-05-09T01:17:48.687Z,9.27
2024-05-09T01:20:20.279Z,10.46
2024-05-09T01:22:54.311Z,11.05
2024-05-09T01:25:23.676Z,10.97
2024-05-09T01:27:50.291Z,11.19
2024-05-09T01:30:21.120Z,12.90
2024-05-09T01:32:51.369Z,12.09
2024-05-09T01:35:23.201Z,11.62
2024-05-09T01:37:50.516Z,11.38
2024-05-09T01:40:22.029Z,11.42
2024-05-09T01:42:51.527Z,10.81
2024-05-09T01:45:19.198Z,10.45
2024-05-09T01:47:46.033Z,10.01
2024-05-09T01:50:16.398Z,10.05
2024-05-09T01:52:43.122Z,9.19
2024-05-09T01:55:09.782Z,11.69
2024-05-09T01:57:36.444Z,11.03
2024-05-09T02:00:06.029Z,11.05
2024-05-09T02:02:37.569Z,11.36
2024-05-09T02:05:04.612Z,10.76
2024-05-09T02:07:31.262Z,12.69
2024-05-09T02:09:57.878Z,11.54
2024-05-09T02:12:24.633Z,12.97
2024-05-09T02:14:52.335Z,12.97
2024-05-09T02:17:19.099Z,11.71
2024-05-09T02:19:45.853Z,12.73
2024-05-09T02:22:12.491Z,11.81
2024-05-09T02:24:39.071Z,11.43
2024-05-09T02:27:05.620Z,11.51
2024-05-09T02:29:32.365Z,12.75
2024-05-09T02:31:59.114Z,12.42
2024-05-09T02:34:25.841Z,10.79
2024-05-09T02:36:55.972Z,10.64
2024-05-09T02:39:22.630Z,10.87
2024-05-09T02:41:49.180Z,11.62
2024-05-09T02:44:15.817Z,11.03
2024-05-09T02:46:42.392Z,11.27
2024-05-09T02:49:09.115Z,13.51
2024-05-09T02:51:35.811Z,11.60
2024-05-09T02:54:02.385Z,12.35
2024-05-09T02:56:29.022Z,12.31
2024-05-09T02:58:56.739Z,12.17
2024-05-09T03:01:23.418Z,12.59
2024-05-09T03:03:51.159Z,10.81
2024-05-09T03:06:17.985Z,11.37
2024-05-09T03:08:46.011Z,12.41
2024-05-09T03:11:25.652Z,10.94
2024-05-09T03:13:53.415Z,10.12
2024-05-09T03:16:20.072Z,10.03
2024-05-09T03:18:50.241Z,9.94
2024-05-09T03:21:16.988Z,11.07
2024-05-09T03:23:43.931Z,11.58
2024-05-09T03:26:15.033Z,10.87
2024-05-09T03:28:43.005Z,11.25
2024-05-09T03:31:09.809Z,11.37
2024-05-09T03:33:38.046Z,11.05
2024-05-09T03:36:08.312Z,10.31
2024-05-09T03:38:42.502Z,10.83
2024-05-09T03:41:09.338Z,11.51
2024-05-09T03:43:36.325Z,12.55
2024-05-09T03:46:02.996Z,12.05
2024-05-09T03:48:29.734Z,11.71
2024-05-09T03:50:56.464Z,10.71
2024-05-09T03:53:23.255Z,11.44
2024-05-09T03:55:49.918Z,11.60
2024-05-09T03:58:16.615Z,12.45
2024-05-09T04:00:43.322Z,12.31
2024-05-09T04:03:12.080Z,11.87
2024-05-09T04:05:41.901Z,11.49
2024-05-09T04:08:10.447Z,11.47
2024-05-09T04:10:37.677Z,11.26
2024-05-09T04:13:04.650Z,11.62
2024-05-09T04:15:31.647Z,12.61
2024-05-09T04:17:58.588Z,11.89
2024-05-09T04:20:35.941Z,12.54
2024-05-09T04:23:07.226Z,12.32
2024-05-09T04:25:34.854Z,12.55
2024-05-09T04:28:01.524Z,11.88
2024-05-09T04:30:36.557Z,11.99
2024-05-09T04:33:08.394Z,12.59
2024-05-09T04:35:37.798Z,12.55
2024-05-09T04:38:05.433Z,12.05
2024-05-09T04:40:35.527Z,12.76
2024-05-09T04:43:04.990Z,11.73
2024-05-09T04:45:31.953Z,12.49
2024-05-09T04:47:58.980Z,12.23
2024-05-09T04:50:35.194Z,11.07
2024-05-09T04:53:05.979Z,10.76
2024-05-09T04:55:35.844Z,11.59
2024-05-09T04:58:02.406Z,10.53
2024-05-09T05:00:35.586Z,10.67
2024-05-09T05:03:07.206Z,12.62
2024-05-09T05:05:40.033Z,11.75
2024-05-09T05:08:18.211Z,12.14
2024-05-09T05:10:46.772Z,11.54
2024-05-09T05:13:22.581Z,12.50
2024-05-09T05:15:57.222Z,12.57
2024-05-09T05:18:28.652Z,12.71
2024-05-09T05:20:56.604Z,12.85
2024-05-09T05:23:24.177Z,12.29
2024-05-09T05:25:55.070Z,13.50
2024-05-09T05:28:22.311Z,14.41
2024-05-09T05:30:49.565Z,14.47
2024-05-09T05:33:21.096Z,13.68
2024-05-09T05:35:47.829Z,15.55
2024-05-09T05:38:14.623Z,13.89
2024-05-09T05:40:41.400Z,14.03
2024-05-09T05:43:17.426Z,16.25
2024-05-09T05:45:44.706Z,15.09
2024-05-09T05:48:13.382Z,15.39
2024-05-09T05:50:40.154Z,15.43
2024-05-09T05:53:08.019Z,15.95
2024-05-09T05:55:36.496Z,18.01
2024-05-09T05:58:03.358Z,19.50
2024-05-09T06:00:38.890Z,22.29
2024-05-09T06:03:12.485Z,20.11
2024-05-09T06:05:40.218Z,20.79
2024-05-09T06:08:07.890Z,20.01
2024-05-09T06:10:39.359Z,20.75
2024-05-09T06:13:11.467Z,22.65
2024-05-09T06:15:39.254Z,20.69
2024-05-09T06:18:07.162Z,21.98
2024-05-09T06:20:36.809Z,21.71
2024-05-09T06:23:10.061Z,20.11
2024-05-09T06:25:37.662Z,21.19
2024-05-09T06:28:04.760Z,20.53
2024-05-09T06:30:38.683Z,21.17
2024-05-09T06:33:11.303Z,18.71
2024-05-09T06:35:39.920Z,20.81
2024-05-09T06:38:08.914Z,21.50
2024-05-09T06:40:38.894Z,21.73
2024-05-09T06:43:19.104Z,21.90
2024-05-09T06:45:48.424Z,22.97
2024-05-09T06:48:19.612Z,23.61
2024-05-09T06:50:47.814Z,21.87
2024-05-09T06:53:15.957Z,21.04
2024-05-09T06:55:43.126Z,18.89
2024-05-09T06:58:09.844Z,20.67
2024-05-09T07:00:39.939Z,19.73
2024-05-09T07:03:10.304Z,20.20
2024-05-09T07:05:37.789Z,18.84
2024-05-09T07:08:05.931Z,19.83
2024-05-09T07:10:35.487Z,19.15
2024-05-09T07:13:03.061Z,18.91
2024-05-09T07:15:29.690Z,18.65
2024-05-09T07:17:56.569Z,18.98
2024-05-09T07:20:32.378Z,19.31
2024-05-09T07:23:02.952Z,20.13
2024-05-09T07:25:30.017Z,17.45
2024-05-09T07:27:56.850Z,19.33
2024-05-09T07:30:30.840Z,18.70
2024-05-09T07:33:01.030Z,19.77
2024-05-09T07:35:28.023Z,19.75
2024-05-09T07:37:54.749Z,18.82
2024-05-09T07:40:33.367Z,19.07
2024-05-09T07:43:04.200Z,19.55
2024-05-09T07:45:47.890Z,20.43
2024-05-09T07:53:39.191Z,18.45
2024-05-09T07:56:10.024Z,18.81
2024-05-09T07:58:37.432Z,17.33
2024-05-09T08:01:04.937Z,16.17
2024-05-09T08:03:34.123Z,15.25
2024-05-09T08:06:01.013Z,15.39
2024-05-09T08:08:27.594Z,13.69
2024-05-09T08:10:54.272Z,14.19
2024-05-09T08:13:21.072Z,14.41
2024-05-09T08:15:48.771Z,15.43
2024-05-09T08:18:15.790Z,16.32
2024-05-09T08:20:48.201Z,15.75
2024-05-09T08:23:14.824Z,15.93
2024-05-09T08:25:41.442Z,14.57
2024-05-09T08:28:08.057Z,11.75
2024-05-09T08:30:37.306Z,12.66
2024-05-09T08:33:06.616Z,13.41
2024-05-09T08:35:34.421Z,14.01
2024-05-09T08:38:06.068Z,16.00
2024-05-09T08:40:37.647Z,14.53
2024-05-09T08:43:12.503Z,14.33
2024-05-09T08:45:43.187Z,14.63
2024-05-09T08:48:13.108Z,15.24
2024-05-09T08:50:40.822Z,16.30
2024-05-09T08:53:09.099Z,14.45
2024-05-09T08:55:40.523Z,16.67
2024-05-09T08:58:15.692Z,14.27
2024-05-09T09:00:44.539Z,16.35
2024-05-09T09:03:17.424Z,15.17
2024-05-09T09:06:07.054Z,15.05
2024-05-09T09:08:33.744Z,12.10
2024-05-09T09:11:00.632Z,15.77
2024-05-09T09:13:27.381Z,13.57
2024-05-09T09:15:58.213Z,13.73
2024-05-09T09:18:30.040Z,15.44
2024-05-09T09:20:56.934Z,14.55
2024-05-09T09:23:23.625Z,14.88
2024-05-09T09:25:51.880Z,14.66
2024-05-09T09:28:22.676Z,17.00
2024-05-09T09:30:49.379Z,17.75
2024-05-09T09:33:18.603Z,14.65
2024-05-09T09:35:45.513Z,16.62
2024-05-09T09:38:21.234Z,15.54
2024-05-09T09:40:50.700Z,14.52
2024-05-09T09:43:22.510Z,15.51
2024-05-09T09:45:52.899Z,13.67
2024-05-09T09:48:22.851Z,15.99
2024-05-09T09:50:52.395Z,15.12
2024-05-09T09:53:20.003Z,12.77
2024-05-09T09:55:49.431Z,13.93
2024-05-09T09:58:17.636Z,11.89
2024-05-09T10:00:45.280Z,12.97
2024-05-09T10:03:12.301Z,13.16
2024-05-09T10:05:42.217Z,12.25
2024-05-09T10:08:12.853Z,12.05
2024-05-09T10:10:40.126Z,10.94
2024-05-09T10:13:07.882Z,13.69
2024-05-09T10:15:52.988Z,10.75
2024-05-09T10:18:26.328Z,12.41
2024-05-09T10:20:55.977Z,11.41
2024-05-09T10:23:30.355Z,11.59
2024-05-09T10:26:02.968Z,11.51
2024-05-09T10:28:35.319Z,11.42
2024-05-09T10:31:08.786Z,11.16
2024-05-09T10:33:50.998Z,11.33
2024-05-09T10:36:23.913Z,10.17
2024-05-09T10:38:53.166Z,10.21
2024-05-09T10:41:21.759Z,11.17
2024-05-09T10:43:49.147Z,9.94
2024-05-09T10:46:16.945Z,11.39
2024-05-09T10:48:44.316Z,10.76
2024-05-09T10:51:11.767Z,10.12
2024-05-09T10:53:45.003Z,8.74
2024-05-09T10:56:13.943Z,9.99
2024-05-09T10:58:40.546Z,13.90
2024-05-09T11:01:09.037Z,11.70
2024-05-09T11:03:36.837Z,11.93
2024-05-09T11:06:05.282Z,10.73
2024-05-09T11:08:34.856Z,11.56
2024-05-09T11:11:05.768Z,12.02
2024-05-09T11:13:34.218Z,13.42
2024-05-09T11:16:01.479Z,11.89
2024-05-09T11:18:33.480Z,10.70
2024-05-09T11:21:03.294Z,10.37
2024-05-09T11:23:33.087Z,10.86
2024-05-09T11:25:59.635Z,11.72
2024-05-09T11:28:28.958Z,9.89
2024-05-09T11:31:07.096Z,9.88
2024-05-09T11:33:37.776Z,9.87
2024-05-09T11:36:05.358Z,11.27
2024-05-09T11:38:32.683Z,12.24
2024-05-09T11:40:59.472Z,15.07
2024-05-09T11:43:26.157Z,12.97
2024-05-09T11:45:53.162Z,11.40
2024-05-09T11:48:20.099Z,14.21
2024-05-09T11:50:46.840Z,13.84
2024-05-09T11:53:13.408Z,13.04
2024-05-09T11:55:39.978Z,13.07
2024-05-09T11:58:07.236Z,13.80
2024-05-09T12:00:37.198Z,16.03
2024-05-09T12:03:05.865Z,13.03
2024-05-09T12:05:33.756Z,14.09
2024-05-09T12:08:01.410Z,13.60
2024-05-09T12:10:33.449Z,11.01
2024-05-09T12:13:03.995Z,13.64
2024-05-09T12:15:32.339Z,11.69
2024-05-09T12:18:01.655Z,13.50
2024-05-09T12:20:36.612Z,12.93
2024-05-09T12:23:06.770Z,13.65
2024-05-09T12:25:33.567Z,14.49
2024-05-09T12:28:00.900Z,13.19
2024-05-09T12:30:36.013Z,13.58
2024-05-09T12:33:07.604Z,13.95
2024-05-09T12:35:34.479Z,16.29
2024-05-09T12:38:01.042Z,14.13
2024-05-09T12:40:35.490Z,17.49
2024-05-09T12:43:05.960Z,14.95
2024-05-09T12:45:32.791Z,14.15
2024-05-09T12:47:59.668Z,13.40
2024-05-09T12:50:32.388Z,15.79
2024-05-09T12:53:01.189Z,14.74
2024-05-09T12:55:29.750Z,16.77
2024-05-09T12:57:59.411Z,14.38
2024-05-09T13:00:31.670Z,14.15
2024-05-09T13:03:01.098Z,14.59
2024-05-09T13:05:28.146Z,15.66
2024-05-09T13:07:56.420Z,16.47
2024-05-09T13:10:30.729Z,13.32
2024-05-09T13:13:00.261Z,16.82
2024-05-09T13:15:27.407Z,14.50
2024-05-09T13:17:56.368Z,15.08
2024-05-09T13:20:29.550Z,15.25
2024-05-09T13:23:02.581Z,17.71
2024-05-09T13:25:29.314Z,15.78
2024-05-09T13:27:57.164Z,15.61
2024-05-09T13:30:29.922Z,15.25
2024-05-09T13:33:06.370Z,15.89
2024-05-09T13:35:35.195Z,15.15
2024-05-09T13:38:02.889Z,18.19
2024-05-09T13:40:34.126Z,18.51
2024-05-09T13:43:04.048Z,15.43
2024-05-09T13:45:31.427Z,16.94
2024-05-09T13:47:58.699Z,17.75
2024-05-09T13:50:33.271Z,16.84
2024-05-09T13:53:04.676Z,16.10
2024-05-09T13:55:31.373Z,15.08
2024-05-09T13:57:58.222Z,13.77
2024-05-09T14:00:41.263Z,13.89
2024-05-09T14:03:11.910Z,12.91
2024-05-09T14:05:38.858Z,15.06
2024-05-09T14:08:05.964Z,14.35
2024-05-09T14:10:32.928Z,13.35
2024-05-09T14:13:01.052Z,17.55
2024-05-09T14:15:28.043Z,13.86
2024-05-09T14:17:55.564Z,15.93
2024-05-09T14:20:30.504Z,15.53
2024-05-09T14:23:01.575Z,15.12
2024-05-09T14:25:29.763Z,15.95
2024-05-09T14:27:59.693Z,14.29
2024-05-09T14:30:34.737Z,13.58
2024-05-09T14:33:08.927Z,18.25
2024-05-09T14:35:39.614Z,15.60
2024-05-09T14:38:08.344Z,16.75
2024-05-09T14:40:41.626Z,13.47
2024-05-09T14:43:15.074Z,13.95
2024-05-09T14:45:43.715Z,14.83
2024-05-09T14:48:15.419Z,16.39
2024-05-09T14:50:42.539Z,15.04
2024-05-09T14:53:11.097Z,18.67
2024-05-09T14:55:39.311Z,16.48
2024-05-09T14:58:07.926Z,16.87
2024-05-09T15:00:42.327Z,17.17
2024-05-09T15:03:11.736Z,15.57
2024-05-09T15:05:38.749Z,17.48
2024-05-09T15:08:11.405Z,19.07
2024-05-09T15:10:38.742Z,16.89
2024-05-09T15:13:07.337Z,16.69
2024-05-09T15:15:35.814Z,16.45
2024-05-09T15:18:04.268Z,16.55
2024-05-09T15:20:35.381Z,17.69
2024-05-09T15:23:06.066Z,18.98
2024-05-09T15:25:34.307Z,17.92
2024-05-09T15:28:01.179Z,16.56
2024-05-09T15:30:31.316Z,18.66
2024-05-09T15:33:00.993Z,19.08
2024-05-09T15:35:27.953Z,16.29
2024-05-09T15:37:55.333Z,18.63
2024-05-09T15:40:31.365Z,19.81
2024-05-09T15:43:05.343Z,19.66
2024-05-09T15:45:32.530Z,21.89
2024-05-09T15:48:00.031Z,23.21
2024-05-09T15:50:36.388Z,20.89
2024-05-09T15:53:08.208Z,32.35
2024-05-09T15:55:35.841Z,46.65
2024-05-09T15:58:04.299Z,24.47
2024-05-09T16:00:38.928Z,27.38
2024-05-09T16:03:13.279Z,19.72
2024-05-09T16:05:43.049Z,22.75
2024-05-09T16:08:12.594Z,19.63
2024-05-09T16:10:44.172Z,17.54
2024-05-09T16:13:12.064Z,17.50
2024-05-09T16:15:39.090Z,19.40
2024-05-09T16:18:06.607Z,18.57
2024-05-09T16:20:39.094Z,22.91
2024-05-09T16:23:08.909Z,25.72
2024-05-09T16:25:36.128Z,25.67
2024-05-09T16:28:08.348Z,25.59
2024-05-09T16:30:37.428Z,25.27
2024-05-09T16:33:05.216Z,25.05
2024-05-09T16:35:32.921Z,24.01
2024-05-09T16:38:02.313Z,23.71
2024-05-09T16:40:36.522Z,23.37
2024-05-09T16:43:06.712Z,27.70
2024-05-09T16:45:33.826Z,27.23
2024-05-09T16:48:01.612Z,29.37
2024-05-09T16:50:32.801Z,24.17
2024-05-09T16:53:02.121Z,27.42
2024-05-09T16:55:28.921Z,31.19
2024-05-09T16:57:56.864Z,30.83
2024-05-09T17:00:34.931Z,31.46
2024-05-09T17:03:08.821Z,28.77
2024-05-09T17:05:36.411Z,27.61
2024-05-09T17:08:03.669Z,27.21
2024-05-09T17:10:33.655Z,28.75
2024-05-09T17:13:04.661Z,29.83
2024-05-09T17:15:33.293Z,29.50
2024-05-09T17:18:01.727Z,31.49
2024-05-09T17:20:33.592Z,29.82
2024-05-09T17:23:04.452Z,29.04
2024-05-09T17:25:31.545Z,31.08
2024-05-09T17:28:05.047Z,31.03
2024-05-09T17:30:37.431Z,30.05
2024-05-09T17:33:11.085Z,28.01
2024-05-09T17:35:38.995Z,28.47
2024-05-09T17:38:06.780Z,30.94
2024-05-09T17:40:36.361Z,27.23
2024-05-09T17:43:06.226Z,25.32
2024-05-09T17:45:33.959Z,28.05
2024-05-09T17:48:01.323Z,25.51
2024-05-09T17:50:34.950Z,25.74
2024-05-09T17:53:04.580Z,26.19
2024-05-09T17:55:31.400Z,27.69
2024-05-09T17:57:59.450Z,25.08
2024-05-09T18:02:56.016Z,26.71
2024-05-09T18:05:22.845Z,30.80
2024-05-09T18:07:49.819Z,27.23
2024-05-09T18:10:22.578Z,28.45
2024-05-09T18:12:56.263Z,28.79
2024-05-09T18:15:22.855Z,28.07
2024-05-09T18:17:49.590Z,25.77
2024-05-09T18:20:24.145Z,26.72
2024-05-09T18:22:59.474Z,35.90
2024-05-09T18:25:26.199Z,32.91
2024-05-09T18:27:53.167Z,30.41
2024-05-09T18:30:27.421Z,29.19
2024-05-09T18:32:58.402Z,28.06
2024-05-09T18:35:25.052Z,25.71
2024-05-09T18:37:53.056Z,27.15
2024-05-09T18:40:27.340Z,27.29
2024-05-09T18:42:58.007Z,28.03
2024-05-09T18:45:27.402Z,26.99
2024-05-09T18:47:54.218Z,28.04
2024-05-09T18:50:28.849Z,27.25
2024-05-09T18:53:01.820Z,29.41
2024-05-09T18:55:28.361Z,28.40
2024-05-09T18:57:54.988Z,31.63
2024-05-09T19:00:31.467Z,27.51
2024-05-09T19:03:04.674Z,30.28
2024-05-09T19:05:32.202Z,28.87
2024-05-09T19:07:59.524Z,29.57
2024-05-09T19:10:31.623Z,27.68
2024-05-09T19:13:00.827Z,30.36
2024-05-09T19:15:27.643Z,26.93
2024-05-09T19:17:54.371Z,30.18
2024-05-09T19:20:28.615Z,27.63
2024-05-09T19:23:00.233Z,27.46
2024-05-09T19:25:26.817Z,26.79
2024-05-09T19:27:53.422Z,29.74
2024-05-09T19:30:29.295Z,30.53
2024-05-09T19:33:03.849Z,32.39
2024-05-09T19:35:33.303Z,28.90
2024-05-09T19:38:06.231Z,26.28
2024-05-09T19:40:34.471Z,25.92
2024-05-09T19:43:02.966Z,27.77
2024-05-09T19:45:31.094Z,32.10
2024-05-09T19:47:58.476Z,30.31
2024-05-09T19:50:32.727Z,28.95
2024-05-09T19:53:07.834Z,28.02
2024-05-09T19:55:35.009Z,29.29
2024-05-09T19:58:06.845Z,27.01
2024-05-09T20:00:37.111Z,29.63
2024-05-09T20:03:06.099Z,33.87
2024-05-09T20:05:33.435Z,32.80
2024-05-09T20:08:00.263Z,29.77
2024-05-09T20:10:32.073Z,29.25
2024-05-09T20:13:01.023Z,29.52
2024-05-09T20:15:27.823Z,28.43
2024-05-09T20:17:56.672Z,29.83
2024-05-09T20:20:33.345Z,30.88
2024-05-09T20:23:07.642Z,34.38
2024-05-09T20:25:34.342Z,37.06
2024-05-09T20:28:01.215Z,37.46
2024-05-09T20:30:32.933Z,39.57
2024-05-09T20:33:05.901Z,37.55
2024-05-09T20:35:33.849Z,39.85
2024-05-09T20:38:01.921Z,42.35
2024-05-09T20:40:33.927Z,45.19
2024-05-09T20:43:04.604Z,40.59
2024-05-09T20:45:31.385Z,37.85
2024-05-09T20:47:58.306Z,36.77
2024-05-09T20:50:35.634Z,38.35
2024-05-09T20:53:11.992Z,34.65
2024-05-09T20:55:40.162Z,34.84
2024-05-09T20:58:06.944Z,43.42
2024-05-09T21:00:39.819Z,35.46
2024-05-09T21:03:10.854Z,35.45
2024-05-09T21:05:38.090Z,39.22
2024-05-09T21:08:05.097Z,35.48
2024-05-09T21:10:33.571Z,36.06
2024-05-09T21:13:02.909Z,35.84
2024-05-09T21:15:30.735Z,35.27
2024-05-09T21:17:57.436Z,35.67
2024-05-09T21:20:30.497Z,32.92
2024-05-09T21:22:58.985Z,40.65
2024-05-09T21:25:25.944Z,41.77
2024-05-09T21:27:53.197Z,41.20
2024-05-09T21:30:31.422Z,41.65
2024-05-09T21:33:06.152Z,42.66
2024-05-09T21:35:32.866Z,38.05
2024-05-09T21:37:59.497Z,36.75
2024-05-09T21:40:33.407Z,36.81
2024-05-09T21:43:02.408Z,38.75
2024-05-09T21:45:29.077Z,37.07
2024-05-09T21:47:56.009Z,36.73
2024-05-09T21:50:28.507Z,37.07
2024-05-09T21:53:03.063Z,40.24
2024-05-09T21:55:29.948Z,41.37
2024-05-09T21:57:56.638Z,41.67
2024-05-09T22:00:31.650Z,39.71
2024-05-09T22:03:02.552Z,42.84
2024-05-09T22:05:29.725Z,42.27
2024-05-09T22:07:56.856Z,38.68
2024-05-09T22:10:30.228Z,38.71
2024-05-09T22:13:00.310Z,39.57
2024-05-09T22:15:27.131Z,38.42
2024-05-09T22:17:55.770Z,40.24
2024-05-09T22:20:29.299Z,38.99
2024-05-09T22:23:03.152Z,38.37
2024-05-09T22:25:30.792Z,40.88
2024-05-09T22:27:58.376Z,41.19
2024-05-09T22:30:33.778Z,39.68
2024-05-09T22:33:05.182Z,41.83
2024-05-09T22:35:32.067Z,41.22
2024-05-09T22:37:58.767Z,40.51
2024-05-09T22:40:37.775Z,44.47
2024-05-09T22:43:12.319Z,43.75
2024-05-09T22:45:39.469Z,41.02
2024-05-09T22:48:07.423Z,41.04
2024-05-09T22:50:34.217Z,38.01
2024-05-09T22:53:01.180Z,38.31
2024-05-09T22:55:28.251Z,35.99
2024-05-09T22:57:55.071Z,36.31
2024-05-09T23:00:30.435Z,38.55
2024-05-09T23:03:02.599Z,42.53
2024-05-09T23:05:30.822Z,41.89
2024-05-09T23:07:57.930Z,38.12
2024-05-09T23:10:31.659Z,39.30
2024-05-09T23:13:02.983Z,41.15
2024-05-09T23:15:30.076Z,40.68
2024-05-09T23:17:57.624Z,41.27
2024-05-09T23:22:54.136Z,38.52
2024-05-09T23:25:20.735Z,39.09
2024-05-09T23:27:47.482Z,36.88
2024-05-09T23:30:21.942Z,36.27
2024-05-09T23:32:55.709Z,36.00
2024-05-09T23:35:22.482Z,34.32
2024-05-09T23:37:49.052Z,35.27
2024-05-09T23:40:18.977Z,37.13
2024-05-09T23:42:49.316Z,39.69
2024-05-09T23:45:16.145Z,38.87
2024-05-09T23:47:42.993Z,40.95
2024-05-09T23:50:16.720Z,36.85
2024-05-09T23:52:50.042Z,37.87
2024-05-09T23:55:16.667Z,37.31
2024-05-09T23:57:43.352Z,38.04
